createdAt,value
2023-05-06T00:02:57.395Z,100573.88
2023-05-06T00:06:01.060Z,100571.88
2023-05-06T00:09:04.464Z,100577.19
2023-05-06T00:12:07.841Z,100572.25
2023-05-06T00:15:11.377Z,100575.63
2023-05-06T00:18:15.342Z,100571.75
2023-05-06T00:21:18.626Z,100573.38
2023-05-06T00:24:21.804Z,100575.66
2023-05-06T00:27:24.552Z,100577.53
2023-05-06T00:30:27.709Z,100584.28
2023-05-06T00:33:30.734Z,100578.47
2023-05-06T00:36:34.262Z,100583.41
2023-05-06T00:39:37.023Z,100572.03
2023-05-06T00:42:40.284Z,100573.34
2023-05-06T00:45:43.028Z,100566.13
2023-05-06T00:48:46.286Z,100564.03
2023-05-06T00:51:49.390Z,100562.41
2023-05-06T00:54:52.364Z,100557.25
2023-05-06T00:57:55.393Z,100565.09
2023-05-06T01:00:58.709Z,100558.63
2023-05-06T01:04:01.801Z,100548.47
2023-05-06T01:07:22.216Z,100567.00
2023-05-06T01:10:33.869Z,100566.31
2023-05-06T01:13:46.558Z,100556.56
2023-05-06T01:16:54.534Z,100557.31
2023-05-06T01:20:01.697Z,100555.53
2023-05-06T01:23:14.775Z,100554.06
2023-05-06T01:26:17.882Z,100564.00
2023-05-06T01:29:20.738Z,100562.06
2023-05-06T01:33:04.208Z,100564.75
2023-05-06T01:36:07.271Z,100568.13
2023-05-06T01:39:18.737Z,100570.94
2023-05-06T01:42:22.337Z,100560.62
2023-05-06T01:45:28.572Z,100563.34
2023-05-06T01:48:34.076Z,100559.63
2023-05-06T01:51:37.609Z,100563.94
2023-05-06T01:54:40.334Z,100558.87
2023-05-06T01:57:43.306Z,100554.09
2023-05-06T02:00:46.013Z,100560.47
2023-05-06T02:03:50.039Z,100560.19
2023-05-06T02:06:52.928Z,100558.47
2023-05-06T02:09:56.184Z,100558.16
2023-05-06T02:12:59.289Z,100557.56
2023-05-06T02:16:02.528Z,100554.72
2023-05-06T02:19:06.486Z,100551.63
2023-05-06T02:22:09.484Z,100545.84
2023-05-06T02:25:12.565Z,100541.75
2023-05-06T02:28:15.417Z,100545.53
2023-05-06T02:31:19.535Z,100533.44
2023-05-06T02:34:23.418Z,100536.47
2023-05-06T02:37:26.468Z,100543.38
2023-05-06T02:40:29.476Z,100534.00
2023-05-06T02:43:32.377Z,100537.88
2023-05-06T02:46:35.015Z,100534.72
2023-05-06T02:49:37.961Z,100530.56
2023-05-06T02:52:40.815Z,100531.97
2023-05-06T02:55:43.758Z,100533.50
2023-05-06T02:58:46.481Z,100531.84
2023-05-06T03:01:49.558Z,100530.69
2023-05-06T03:04:52.313Z,100527.47
2023-05-06T03:07:55.432Z,100533.44
2023-05-06T03:10:58.449Z,100536.13
2023-05-06T03:14:01.477Z,100530.56
2023-05-06T03:17:04.271Z,100529.84
2023-05-06T03:20:09.094Z,100531.56
2023-05-06T03:23:12.628Z,100532.56
2023-05-06T03:26:15.717Z,100526.81
2023-05-06T03:29:18.674Z,100534.72
2023-05-06T03:32:22.070Z,100530.53
2023-05-06T03:35:24.920Z,100537.09
2023-05-06T03:38:28.498Z,100538.09
2023-05-06T03:41:31.948Z,100539.56
2023-05-06T03:44:35.730Z,100538.75
2023-05-06T03:47:38.797Z,100547.16
2023-05-06T03:50:43.028Z,100552.84
2023-05-06T03:53:45.922Z,100553.22
2023-05-06T03:56:49.838Z,100560.47
2023-05-06T03:59:53.003Z,100556.31
2023-05-06T04:02:56.630Z,100561.88
2023-05-06T04:06:00.130Z,100562.06
2023-05-06T04:09:06.429Z,100570.75
2023-05-06T04:12:10.890Z,100565.69
2023-05-06T04:15:13.646Z,100566.97
2023-05-06T04:18:19.336Z,100572.56
2023-05-06T04:21:22.582Z,100574.00
2023-05-06T04:24:31.422Z,100573.50
2023-05-06T04:27:35.131Z,100573.94
2023-05-06T04:30:39.386Z,100576.34
2023-05-06T04:33:42.952Z,100570.56
2023-05-06T04:36:48.005Z,100582.53
2023-05-06T04:39:51.692Z,100579.63
2023-05-06T04:42:54.865Z,100584.75
2023-05-06T04:45:58.166Z,100588.19
2023-05-06T04:49:02.126Z,100587.28
2023-05-06T04:52:05.113Z,100585.25
2023-05-06T04:55:09.539Z,100585.09
2023-05-06T04:58:13.072Z,100593.88
2023-05-06T05:01:16.339Z,100586.97
2023-05-06T05:04:19.000Z,100585.59
2023-05-06T05:07:22.957Z,100584.97
2023-05-06T05:10:26.184Z,100576.41
2023-05-06T05:13:30.150Z,100579.72
2023-05-06T05:16:33.435Z,100588.53
2023-05-06T05:19:37.173Z,100583.56
2023-05-06T05:22:40.740Z,100578.88
2023-05-06T05:25:44.033Z,100581.25
2023-05-06T05:28:46.989Z,100577.75
2023-05-06T05:31:50.175Z,100584.44
2023-05-06T05:34:53.846Z,100585.97
2023-05-06T05:37:57.178Z,100582.66
2023-05-06T05:41:00.695Z,100588.50
2023-05-06T05:44:04.100Z,100587.16
2023-05-06T05:47:07.479Z,100591.31
2023-05-06T05:50:11.132Z,100586.28
2023-05-06T05:53:14.144Z,100589.19
2023-05-06T05:56:17.190Z,100590.88
2023-05-06T05:59:32.577Z,100593.75
2023-05-06T06:02:41.306Z,100591.69
2023-05-06T06:05:49.394Z,100593.31
2023-05-06T06:08:52.790Z,100591.66
2023-05-06T06:11:56.443Z,100582.87
2023-05-06T06:15:00.339Z,100577.50
2023-05-06T06:18:04.137Z,100588.28
2023-05-06T06:21:07.066Z,100585.87
2023-05-06T06:24:10.882Z,100595.53
2023-05-06T06:27:13.535Z,100589.63
2023-05-06T06:30:16.605Z,100597.25
2023-05-06T06:33:19.385Z,100594.09
2023-05-06T06:36:22.397Z,100595.47
2023-05-06T06:39:25.126Z,100590.47
2023-05-06T06:42:28.254Z,100591.78
2023-05-06T06:45:34.475Z,100594.75
2023-05-06T06:48:37.477Z,100596.63
2023-05-06T06:51:40.625Z,100594.00
2023-05-06T06:54:43.724Z,100589.22
2023-05-06T06:57:47.011Z,100586.13
2023-05-06T07:00:50.151Z,100589.16
2023-05-06T07:03:53.278Z,100585.22
2023-05-06T07:06:56.905Z,100590.19
2023-05-06T07:09:59.885Z,100583.28
2023-05-06T07:13:02.995Z,100594.00
2023-05-06T07:16:06.429Z,100583.94
2023-05-06T07:19:09.498Z,100591.62
2023-05-06T07:22:12.631Z,100603.97
2023-05-06T07:25:15.697Z,100598.06
2023-05-06T07:28:18.560Z,100601.59
2023-05-06T07:31:21.759Z,100604.31
2023-05-06T07:34:24.517Z,100609.75
2023-05-06T07:37:27.563Z,100602.72
2023-05-06T07:40:30.304Z,100604.47
2023-05-06T07:43:33.744Z,100598.22
2023-05-06T07:46:36.783Z,100596.03
2023-05-06T07:49:39.988Z,100590.03
2023-05-06T07:52:43.010Z,100599.44
2023-05-06T07:55:46.257Z,100602.19
2023-05-06T07:58:51.511Z,100597.59
2023-05-06T08:01:56.655Z,100589.63
2023-05-06T08:05:00.358Z,100607.81
2023-05-06T08:08:03.144Z,100599.72
2023-05-06T08:11:06.177Z,100606.59
2023-05-06T08:14:08.920Z,100594.72
2023-05-06T08:17:13.332Z,100604.59
2023-05-06T08:20:16.015Z,100596.84
2023-05-06T08:23:19.106Z,100613.09
2023-05-06T08:26:21.854Z,100610.84
2023-05-06T08:29:24.909Z,100608.75
2023-05-06T08:32:27.704Z,100608.03
2023-05-06T08:35:30.881Z,100615.00
2023-05-06T08:38:41.145Z,100611.28
2023-05-06T08:41:52.741Z,100615.75
2023-05-06T08:47:03.234Z,100609.50
2023-05-06T08:50:09.868Z,100609.50
2023-05-06T08:53:13.768Z,100611.25
2023-05-06T08:56:18.621Z,100604.00
2023-05-06T08:59:24.987Z,100606.22
2023-05-06T09:02:28.662Z,100606.56
2023-05-06T09:05:31.632Z,100614.06
2023-05-06T09:08:34.881Z,100608.38
2023-05-06T09:11:40.830Z,100611.13
2023-05-06T09:14:44.235Z,100603.69
2023-05-06T09:17:47.678Z,100606.53
2023-05-06T09:20:50.769Z,100599.37
2023-05-06T09:23:53.497Z,100587.28
2023-05-06T09:26:57.071Z,100596.81
2023-05-06T09:30:12.123Z,100590.47
2023-05-06T09:33:16.212Z,100588.28
2023-05-06T09:36:19.436Z,100588.75
2023-05-06T09:39:26.899Z,100590.50
2023-05-06T09:42:30.746Z,100577.28
2023-05-06T09:45:34.456Z,100573.44
2023-05-06T09:48:38.107Z,100580.56
2023-05-06T09:51:47.983Z,100577.75
2023-05-06T09:54:52.042Z,100568.25
2023-05-06T09:57:56.360Z,100568.25
2023-05-06T10:00:59.677Z,100558.53
2023-05-06T10:04:08.355Z,100560.91
2023-05-06T10:07:12.992Z,100554.63
2023-05-06T10:10:16.779Z,100546.44
2023-05-06T10:13:21.680Z,100553.13
2023-05-06T10:16:24.784Z,100549.06
2023-05-06T10:19:28.364Z,100542.81
2023-05-06T10:22:47.974Z,100535.78
2023-05-06T10:25:55.894Z,100532.00
2023-05-06T10:29:01.625Z,100534.47
2023-05-06T10:32:09.734Z,100522.06
2023-05-06T10:35:22.753Z,100519.84
2023-05-06T10:38:36.301Z,100523.19
2023-05-06T10:41:39.958Z,100519.53
2023-05-06T10:45:05.266Z,100513.44
2023-05-06T10:48:09.092Z,100510.19
2023-05-06T10:51:17.639Z,100513.12
2023-05-06T10:54:20.729Z,100514.25
2023-05-06T10:57:27.260Z,100507.00
2023-05-06T11:00:34.897Z,100512.47
2023-05-06T11:03:37.754Z,100513.56
2023-05-06T11:06:49.049Z,100507.87
2023-05-06T11:09:56.910Z,100503.78
2023-05-06T11:13:18.114Z,100506.44
2023-05-06T11:16:59.005Z,100498.94
2023-05-06T11:20:28.460Z,100510.47
2023-05-06T11:23:43.526Z,100504.59
2023-05-06T11:26:47.781Z,100498.22
2023-05-06T11:29:50.731Z,100486.66
2023-05-06T11:32:56.000Z,100494.75
2023-05-06T11:35:59.880Z,100483.12
2023-05-06T11:39:10.300Z,100500.06
2023-05-06T11:42:13.312Z,100489.62
2023-05-06T11:45:17.039Z,100496.59
2023-05-06T11:48:19.610Z,100493.25
2023-05-06T11:51:23.481Z,100488.22
2023-05-06T11:54:27.501Z,100491.97
2023-05-06T11:57:30.474Z,100483.44
2023-05-06T12:00:33.476Z,100488.09
2023-05-06T12:03:36.782Z,100484.78
2023-05-06T12:06:40.215Z,100473.81
2023-05-06T12:09:47.927Z,100485.41
2023-05-06T12:12:50.924Z,100488.16
2023-05-06T12:15:58.453Z,100481.31
2023-05-06T12:19:02.458Z,100484.50
2023-05-06T12:22:18.109Z,100477.81
2023-05-06T12:25:21.057Z,100481.19
2023-05-06T12:28:24.089Z,100481.34
2023-05-06T12:31:28.765Z,100471.94
2023-05-06T12:34:41.733Z,100463.03
2023-05-06T12:37:44.400Z,100466.38
2023-05-06T12:40:54.195Z,100459.06
2023-05-06T12:43:56.857Z,100456.22
2023-05-06T12:47:02.223Z,100455.84
2023-05-06T12:50:05.180Z,100453.69
2023-05-06T12:53:10.902Z,100449.50
2023-05-06T12:56:13.746Z,100455.13
2023-05-06T12:59:16.692Z,100440.16
2023-05-06T13:02:19.722Z,100435.09
2023-05-06T13:05:23.216Z,100426.09
2023-05-06T13:08:25.921Z,100433.84
2023-05-06T13:11:28.883Z,100433.06
2023-05-06T13:14:31.726Z,100439.12
2023-05-06T13:17:34.897Z,100441.22
2023-05-06T13:20:37.635Z,100427.91
2023-05-06T13:23:46.957Z,100423.22
2023-05-06T13:26:49.811Z,100429.16
2023-05-06T13:29:52.816Z,100426.06
2023-05-06T13:32:55.726Z,100404.09
2023-05-06T13:35:59.070Z,100411.88
2023-05-06T13:39:02.059Z,100416.53
2023-05-06T13:42:08.030Z,100408.97
2023-05-06T13:45:11.230Z,100402.69
2023-05-06T13:48:14.382Z,100394.03
2023-05-06T13:51:17.180Z,100406.97
2023-05-06T13:54:20.157Z,100400.91
2023-05-06T13:57:24.485Z,100399.66
2023-05-06T14:00:27.626Z,100402.28
2023-05-06T14:03:30.852Z,100396.84
2023-05-06T14:06:33.690Z,100394.03
2023-05-06T14:09:36.739Z,100390.22
2023-05-06T14:12:39.701Z,100391.28
2023-05-06T14:15:42.777Z,100383.34
2023-05-06T14:18:45.724Z,100386.63
2023-05-06T14:21:49.250Z,100382.94
2023-05-06T14:24:52.056Z,100388.19
2023-05-06T14:27:55.218Z,100381.69
2023-05-06T14:30:58.396Z,100383.13
2023-05-06T14:34:02.734Z,100384.62
2023-05-06T14:37:05.939Z,100376.94
2023-05-06T14:40:10.220Z,100384.91
2023-05-06T14:43:12.935Z,100378.16
2023-05-06T14:46:16.397Z,100373.34
2023-05-06T14:49:19.233Z,100372.41
2023-05-06T14:52:22.434Z,100372.78
2023-05-06T14:55:25.936Z,100374.91
2023-05-06T14:58:28.865Z,100376.16
2023-05-06T15:01:33.731Z,100381.09
2023-05-06T15:04:36.977Z,100374.28
2023-05-06T15:07:39.606Z,100367.03
2023-05-06T15:10:42.805Z,100371.00
2023-05-06T15:13:45.778Z,100361.78
2023-05-06T15:16:48.814Z,100358.78
2023-05-06T15:19:52.112Z,100356.72
2023-05-06T15:22:55.035Z,100362.63
2023-05-06T15:25:58.317Z,100351.94
2023-05-06T15:29:01.548Z,100353.81
2023-05-06T15:32:04.536Z,100353.91
2023-05-06T15:35:07.958Z,100348.16
2023-05-06T15:38:11.040Z,100350.88
2023-05-06T15:41:14.161Z,100351.34
2023-05-06T15:44:16.813Z,100354.72
2023-05-06T15:47:19.763Z,100353.47
2023-05-06T15:50:32.596Z,100344.81
2023-05-06T15:53:39.582Z,100350.59
2023-05-06T15:56:42.326Z,100348.53
2023-05-06T15:59:45.219Z,100345.41
2023-05-06T16:02:48.629Z,100346.88
2023-05-06T16:05:59.543Z,100348.28
2023-05-06T16:09:02.308Z,100344.69
2023-05-06T16:12:16.217Z,100345.53
2023-05-06T16:15:24.416Z,100350.16
2023-05-06T16:18:27.496Z,100333.06
2023-05-06T16:21:30.269Z,100345.31
2023-05-06T16:24:33.250Z,100332.31
2023-05-06T16:27:35.931Z,100328.28
2023-05-06T16:30:40.564Z,100322.25
2023-05-06T16:33:43.263Z,100320.22
2023-05-06T16:36:46.272Z,100341.19
2023-05-06T16:39:49.061Z,100345.91
2023-05-06T16:43:33.186Z,100344.88
2023-05-06T16:47:07.398Z,100349.44
2023-05-06T16:50:11.894Z,100346.91
2023-05-06T16:53:17.378Z,100338.47
2023-05-06T16:56:20.430Z,100346.25
2023-05-06T16:59:23.713Z,100347.81
2023-05-06T17:02:27.057Z,100353.69
2023-05-06T17:05:31.103Z,100353.50
2023-05-06T17:08:36.475Z,100354.69
2023-05-06T17:11:39.841Z,100364.72
2023-05-06T17:14:42.980Z,100356.56
2023-05-06T17:17:45.799Z,100359.19
2023-05-06T17:20:55.870Z,100349.03
2023-05-06T17:23:59.812Z,100370.78
2023-05-06T17:27:02.925Z,100378.00
2023-05-06T17:30:06.749Z,100376.72
2023-05-06T17:33:09.963Z,100384.50
2023-05-06T17:36:14.029Z,100381.25
2023-05-06T17:39:28.749Z,100390.03
2023-05-06T17:42:45.941Z,100389.03
2023-05-06T17:45:50.102Z,100387.50
2023-05-06T17:48:55.675Z,100390.41
2023-05-06T17:51:59.522Z,100394.56
2023-05-06T17:55:15.451Z,100389.31
2023-05-06T17:58:22.086Z,100391.41
2023-05-06T18:01:24.814Z,100393.37
2023-05-06T18:04:27.989Z,100399.13
2023-05-06T18:07:30.786Z,100400.56
2023-05-06T18:10:33.922Z,100403.91
2023-05-06T18:13:37.226Z,100401.12
2023-05-06T18:16:40.430Z,100405.50
2023-05-06T18:19:43.206Z,100412.12
2023-05-06T18:22:46.632Z,100405.84
2023-05-06T18:25:49.471Z,100398.38
2023-05-06T18:28:52.693Z,100392.16
2023-05-06T18:31:55.588Z,100394.16
2023-05-06T18:34:58.874Z,100402.56
2023-05-06T18:38:01.559Z,100400.38
2023-05-06T18:41:04.714Z,100406.75
2023-05-06T18:44:07.301Z,100401.22
2023-05-06T18:47:13.527Z,100409.91
2023-05-06T18:50:26.655Z,100420.78
2023-05-06T18:53:29.904Z,100415.72
2023-05-06T18:56:32.942Z,100419.00
2023-05-06T18:59:36.596Z,100418.22
2023-05-06T19:02:39.874Z,100423.03
2023-05-06T19:05:43.250Z,100426.56
2023-05-06T19:08:46.098Z,100431.59
2023-05-06T19:11:49.081Z,100427.69
2023-05-06T19:14:51.765Z,100435.31
2023-05-06T19:17:54.843Z,100434.34
2023-05-06T19:20:57.742Z,100437.31
2023-05-06T19:24:01.398Z,100437.50
2023-05-06T19:27:04.141Z,100439.12
2023-05-06T19:30:07.639Z,100439.59
2023-05-06T19:33:11.113Z,100440.53
2023-05-06T19:36:14.157Z,100429.09
2023-05-06T19:39:17.313Z,100432.44
2023-05-06T19:42:20.677Z,100440.75
2023-05-06T19:45:24.253Z,100432.78
2023-05-06T19:48:27.206Z,100440.87
2023-05-06T19:51:30.351Z,100443.78
2023-05-06T19:54:33.361Z,100443.53
2023-05-06T19:57:37.460Z,100438.84
2023-05-06T20:00:40.650Z,100444.41
2023-05-06T20:03:43.702Z,100439.34
2023-05-06T20:06:46.768Z,100439.69
2023-05-06T20:09:55.297Z,100441.06
2023-05-06T20:12:58.334Z,100437.97
2023-05-06T20:16:02.094Z,100452.53
2023-05-06T20:19:05.088Z,100442.25
2023-05-06T20:22:08.461Z,100441.94
2023-05-06T20:25:14.535Z,100443.06
2023-05-06T20:28:18.571Z,100454.13
2023-05-06T20:31:21.352Z,100447.00
2023-05-06T20:34:24.526Z,100453.28
2023-05-06T20:37:30.758Z,100443.75
2023-05-06T20:40:35.861Z,100441.06
2023-05-06T20:43:38.661Z,100442.59
2023-05-06T20:46:41.556Z,100444.63
2023-05-06T20:49:44.341Z,100447.78
2023-05-06T20:52:47.600Z,100447.81
2023-05-06T20:55:50.391Z,100454.59
2023-05-06T20:58:54.706Z,100451.47
2023-05-06T21:01:57.450Z,100445.50
2023-05-06T21:05:00.741Z,100436.47
2023-05-06T21:08:14.775Z,100436.38
2023-05-06T21:11:17.858Z,100428.88
2023-05-06T21:14:21.793Z,100433.69
2023-05-06T21:17:24.750Z,100424.97
2023-05-06T21:20:27.431Z,100401.31
2023-05-06T21:23:31.127Z,100423.00
2023-05-06T21:26:33.917Z,100435.34
2023-05-06T21:29:36.918Z,100439.38
2023-05-06T21:32:39.629Z,100431.44
2023-05-06T21:35:42.636Z,100431.31
2023-05-06T21:38:48.144Z,100433.22
2023-05-06T21:41:51.183Z,100432.75
2023-05-06T21:44:53.808Z,100435.88
2023-05-06T21:47:56.863Z,100428.03
2023-05-06T21:51:03.764Z,100440.75
2023-05-06T21:54:07.217Z,100439.16
2023-05-06T21:57:09.982Z,100441.59
2023-05-06T22:00:13.627Z,100443.97
2023-05-06T22:03:18.263Z,100445.97
2023-05-06T22:06:21.199Z,100447.94
2023-05-06T22:09:24.340Z,100446.31
2023-05-06T22:12:27.510Z,100443.97
2023-05-06T22:15:31.197Z,100449.47
2023-05-06T22:18:36.090Z,100445.12
2023-05-06T22:21:39.156Z,100442.41
2023-05-06T22:24:41.930Z,100438.84
2023-05-06T22:27:44.966Z,100445.97
2023-05-06T22:30:47.646Z,100450.50
2023-05-06T22:33:55.734Z,100445.16
2023-05-06T22:37:00.487Z,100450.03
2023-05-06T22:40:04.488Z,100442.25
2023-05-06T22:43:15.066Z,100448.59
2023-05-06T22:46:53.990Z,100441.16
2023-05-06T22:49:56.700Z,100436.87
2023-05-06T22:53:04.873Z,100438.16
2023-05-06T22:56:13.384Z,100435.84
2023-05-06T22:59:16.553Z,100427.25
2023-05-06T23:02:19.679Z,100435.59
2023-05-06T23:05:22.707Z,100441.97
2023-05-06T23:08:25.514Z,100443.16
2023-05-06T23:11:28.517Z,100446.72
2023-05-06T23:14:31.228Z,100443.16
2023-05-06T23:17:34.228Z,100447.53
2023-05-06T23:20:36.848Z,100445.97
2023-05-06T23:23:39.978Z,100445.19
2023-05-06T23:26:42.616Z,100443.63
2023-05-06T23:29:45.725Z,100438.91
2023-05-06T23:32:48.513Z,100440.87
2023-05-06T23:35:51.538Z,100433.41
2023-05-06T23:38:55.209Z,100425.12
2023-05-06T23:42:00.726Z,100426.28
2023-05-06T23:45:03.798Z,100426.28
2023-05-06T23:48:07.156Z,100420.37
2023-05-06T23:51:09.860Z,100420.81
2023-05-06T23:54:13.116Z,100424.38
2023-05-06T23:57:16.206Z,100424.00
